Detall de PIREP

Printer-friendly versionPDF version

[2015/02/28 15:24:00]
Flight IATA:CT3202
Pilot Number:026
Company ICAO:CAT
Aircraft Type:DC85/A
PAX:132
Aircraft Registration:PAX
Departing Airport: LEPA
Destination Airport: LGAV
Alternate Airport:LGTS
Online: VATSIM
Route:MORSS/N0450F340 UM603 ORVEX/N0450F350 UM601 RUTOM UN604 ARA UB34 NEMES
Flight Level:F350
No Slew and time accel
No pause
Crash detect
Detect pilot in Cockpit between each 30 and 45 minutes
15:24 Zero fuel Weight: 178098 Lbs, Fuel Weight: 45081 Lbs
15:24 VATSIM:LEPA 281500Z 34009KT 300V010 9999 FEW045 14/03 Q1020 NOSIG
15:24 VATSIM:LGAV 281450Z 30005KT 9999 SCT020 BKN070 15/07 Q1013 NOSIG
15:35 Parking Brakes off
15:45 Take-off
15:45 Take off Weight: 221834 Lbs
15:45 Wind: 224º @ 011 Knots Heading: 238º
15:45 POS N39º 33´ 14´´ E002º 43´ 31´´
15:45 Gear Up: 179 Knots
15:45 Flaps:2 at 179 Knots
15:45 Flaps:1 at 194 Knots
15:47 Flaps:0 at 220 Knots
16:00 Wind:259º@028 Knots Heading: 056º Ground Speed: 427 Knots Altitude 30029 ft
16:15 Wind:287º@019 Knots Heading: 071º Ground Speed: 498 Knots Altitude 34110 ft
16:27 TOC
16:27 Fuel Weight: 32716 Lb
16:30 Wind:236º@032 Knots Heading: 117º Ground Speed: 488 Knots Altitude 35196 ft
16:45 Wind:277º@017 Knots Heading: 106º Ground Speed: 498 Knots Altitude 35039 ft
17:00 Wind:292º@011 Knots Heading: 108º Ground Speed: 492 Knots Altitude 35029 ft
17:15 Wind:266º@021 Knots Heading: 099º Ground Speed: 502 Knots Altitude 35009 ft
17:30 Wind:335º@005 Knots Heading: 102º Ground Speed: 464 Knots Altitude 35032 ft
17:38 TOD
17:38 Fuel Weight: 17192 Lb
17:45 Wind:315º@000 Knots Heading: 112º Ground Speed: 446 Knots Altitude 23677 ft
18:00 Wind:292º@001 Knots Heading: 118º Ground Speed: 251 Knots Altitude 5980 ft
18:09 Gear Down: 163 Knots
18:09 Flaps:1 at 164 Knots
18:10 Flaps:2 at 169 Knots
18:10 Flaps:3 at 167 Knots
18:11 Flaps:4 at 167 Knots
18:12 Flaps:5 at 150 Knots
18:12 TouchDown:Rate -736 ft/min Speed: 140 Knots
18:13 VATSIM:LGAV 281750Z VRB02KT 9999 FEW020 BKN070 13/06 Q1015 NOSIG
18:13 Land
18:13 Wind:299º@001 Knots
18:13 Heading: 035º
18:13 Flight Duration: 02:28
18:13 Landing Weight: 191028 Lbs
18:13 POS N37º 56´ 11´´ E023º 55´ 58´´
18:21 Parking brakes on
18:21 Block to Block Duration: 02:46
18:21 Final Fuel: 12215 Lbls
18:21 Spent Fuel: 32866 Lbls
18:21 Flight Length: 947 NM
18:21 TOD Land Length: 183 NM

Exportar CSV

Powered by Drupal - Modified by Danger4k